Time;durP1;ratioP1;P1;durP2;ratioP2;P2;SDS_P1;SDS_P2;PMS_P1;PMS_P2;Temp;Humidity;BMP_temperature;BMP_pressure;BME280_temperature;BME280_humidity;BME280_pressure;Samples;Min_cycle;Max_cycle;Signal;HPM_P1;HPM_P2
2023/04/16 00:02:18;;;;;;;133.98;40.80;;;;;;;;;;4970478;28;20404;-91
2023/04/16 00:04:44;;;;;;;131.73;40.58;;;;;;;;;;4969073;28;20426;-91
2023/04/16 00:07:10;;;;;;;131.75;40.35;;;;;;;;;;5024997;28;20424;-90
2023/04/16 00:09:36;;;;;;;135.35;40.78;;;;;;;;;;4973008;28;20516;-91
2023/04/16 00:12:03;;;;;;;134.73;40.63;;;;;;;;;;4978778;28;20501;-90
2023/04/16 00:14:29;;;;;;;140.02;42.20;;;;;;;;;;4960102;28;20426;-90
2023/04/16 00:16:55;;;;;;;136.00;41.53;;;;;;;;;;4975510;28;20489;-89
2023/04/16 00:19:21;;;;;;;129.82;40.22;;;;;;;;;;4976007;28;20460;-90
2023/04/16 00:21:47;;;;;;;130.52;41.28;;;;;;;;;;4976910;28;20481;-90
2023/04/16 00:24:13;;;;;;;130.40;40.37;;;;;;;;;;4957754;28;20925;-80
2023/04/16 00:26:40;;;;;;;145.38;42.15;;;;;;;;;;4961022;28;20418;-81
2023/04/16 00:29:06;;;;;;;137.00;41.60;;;;;;;;;;4975382;28;20433;-81
2023/04/16 00:31:33;;;;;;;144.37;42.03;;;;;;;;;;4969726;28;20455;-81
2023/04/16 00:33:59;;;;;;;142.35;41.08;;;;;;;;;;4982642;28;20424;-81
2023/04/16 00:36:26;;;;;;;141.57;40.15;;;;;;;;;;4963248;28;20593;-83
2023/04/16 00:38:52;;;;;;;142.32;41.88;;;;;;;;;;4962277;28;20516;-82
2023/04/16 00:41:19;;;;;;;144.90;41.58;;;;;;;;;;4984008;28;20466;-81
2023/04/16 00:43:45;;;;;;;140.93;40.28;;;;;;;;;;4979879;28;20503;-82
2023/04/16 00:46:11;;;;;;;136.87;40.63;;;;;;;;;;4977866;28;20426;-81
2023/04/16 00:48:39;;;;;;;145.95;40.72;;;;;;;;;;4978625;28;20575;-80
2023/04/16 00:51:06;;;;;;;140.27;41.60;;;;;;;;;;4971078;28;20817;-82
2023/04/16 00:53:33;;;;;;;140.18;41.53;;;;;;;;;;4975580;28;22732;-82
2023/04/16 00:55:59;;;;;;;125.85;39.83;;;;;;;;;;4973857;28;20527;-82
2023/04/16 00:58:26;;;;;;;132.75;39.58;;;;;;;;;;4979950;28;20428;-82
2023/04/16 01:00:52;;;;;;;132.10;40.00;;;;;;;;;;4976260;28;20793;-82
2023/04/16 01:03:18;;;;;;;144.02;41.75;;;;;;;;;;4975068;28;20418;-82
2023/04/16 01:05:44;;;;;;;145.82;41.15;;;;;;;;;;4964468;28;20797;-82
2023/04/16 01:08:17;;;;;;;133.75;38.72;;;;;;;;;;4974336;28;20461;-81
2023/04/16 01:10:44;;;;;;;135.98;39.80;;;;;;;;;;4961181;28;20917;-80
2023/04/16 01:13:10;;;;;;;131.25;39.30;;;;;;;;;;4972121;28;20420;-80
2023/04/16 01:15:36;;;;;;;135.85;38.42;;;;;;;;;;4978803;28;20392;-78
2023/04/16 01:18:02;;;;;;;138.85;38.85;;;;;;;;;;4993733;28;20480;-81
2023/04/16 01:20:29;;;;;;;130.45;38.53;;;;;;;;;;4978708;28;20493;-81
2023/04/16 01:22:58;;;;;;;132.10;37.95;;;;;;;;;;5006991;28;20418;-81
2023/04/16 01:25:24;;;;;;;116.63;37.00;;;;;;;;;;4963773;28;20414;-81
2023/04/16 01:27:51;;;;;;;128.10;37.33;;;;;;;;;;4971438;28;20432;-81
2023/04/16 01:30:17;;;;;;;121.78;37.22;;;;;;;;;;4964739;28;20433;-81
2023/04/16 01:32:43;;;;;;;132.63;37.88;;;;;;;;;;4975922;28;20801;-82
2023/04/16 01:35:12;;;;;;;132.95;38.55;;;;;;;;;;4960660;28;20497;-82
2023/04/16 01:37:38;;;;;;;131.27;39.07;;;;;;;;;;4974240;28;20496;-82
2023/04/16 01:40:04;;;;;;;133.15;39.88;;;;;;;;;;4971158;28;20888;-82
2023/04/16 01:42:30;;;;;;;134.52;40.40;;;;;;;;;;4991118;28;20950;-80
2023/04/16 01:44:56;;;;;;;132.68;40.67;;;;;;;;;;4980131;28;20440;-82
2023/04/16 01:47:23;;;;;;;126.32;39.63;;;;;;;;;;4988537;28;20786;-82
2023/04/16 01:49:49;;;;;;;128.10;39.95;;;;;;;;;;4976957;28;20426;-82
2023/04/16 01:52:15;;;;;;;120.32;40.22;;;;;;;;;;4971890;28;20420;-83
2023/04/16 01:54:41;;;;;;;132.02;41.30;;;;;;;;;;4990273;28;20911;-83
2023/04/16 01:57:07;;;;;;;138.35;41.05;;;;;;;;;;4960524;28;20940;-83
2023/04/16 01:59:33;;;;;;;142.13;42.78;;;;;;;;;;4966537;28;20417;-82
2023/04/16 02:02:02;;;;;;;148.15;43.83;;;;;;;;;;4988696;28;20420;-82
2023/04/16 02:04:28;;;;;;;147.95;42.03;;;;;;;;;;4998800;28;20409;-82
2023/04/16 02:06:54;;;;;;;137.45;40.70;;;;;;;;;;4993801;28;20769;-81
2023/04/16 02:09:21;;;;;;;142.77;42.00;;;;;;;;;;4990119;28;20451;-82
2023/04/16 02:11:47;;;;;;;146.27;41.55;;;;;;;;;;4958132;28;20500;-82
2023/04/16 02:14:13;;;;;;;142.95;41.25;;;;;;;;;;4963947;28;20396;-82
2023/04/16 02:16:39;;;;;;;132.73;39.97;;;;;;;;;;4964693;28;20510;-82
2023/04/16 02:19:05;;;;;;;150.70;42.65;;;;;;;;;;4961350;28;20406;-82
2023/04/16 02:21:31;;;;;;;152.35;42.20;;;;;;;;;;4960228;28;20469;-82
2023/04/16 02:23:57;;;;;;;159.80;42.95;;;;;;;;;;4960787;28;20429;-82
2023/04/16 02:26:25;;;;;;;144.75;42.53;;;;;;;;;;4993660;28;20418;-82
2023/04/16 02:28:51;;;;;;;168.27;45.30;;;;;;;;;;4959433;28;20523;-82
2023/04/16 02:31:18;;;;;;;158.30;45.03;;;;;;;;;;4977482;28;20413;-78
2023/04/16 02:33:44;;;;;;;145.52;43.08;;;;;;;;;;4977093;28;20409;-81
2023/04/16 02:36:11;;;;;;;147.30;42.38;;;;;;;;;;4999973;28;20927;-81
2023/04/16 02:38:37;;;;;;;149.73;43.15;;;;;;;;;;4964212;28;20473;-82
2023/04/16 02:41:03;;;;;;;144.17;43.23;;;;;;;;;;4960006;28;20460;-81
2023/04/16 02:43:29;;;;;;;180.02;45.17;;;;;;;;;;4975736;28;20410;-82
2023/04/16 02:45:58;;;;;;;202.43;44.90;;;;;;;;;;4973128;28;20911;-81
2023/04/16 02:48:24;;;;;;;212.60;46.22;;;;;;;;;;4962134;28;20428;-82
2023/04/16 02:50:50;;;;;;;208.05;45.22;;;;;;;;;;5007486;28;20425;-81
2023/04/16 02:53:16;;;;;;;247.18;46.85;;;;;;;;;;4960953;28;20406;-81
2023/04/16 02:55:46;;;;;;;232.30;47.23;;;;;;;;;;4960741;28;20421;-80
2023/04/16 02:58:12;;;;;;;233.60;47.83;;;;;;;;;;4976102;28;20473;-78
2023/04/16 03:00:38;;;;;;;222.13;49.03;;;;;;;;;;4977885;28;20496;-82
2023/04/16 03:03:05;;;;;;;208.20;46.72;;;;;;;;;;4960733;28;20417;-82
2023/04/16 03:05:31;;;;;;;213.70;47.15;;;;;;;;;;4960499;28;20486;-82
2023/04/16 03:07:57;;;;;;;222.23;49.40;;;;;;;;;;4976663;28;20433;-81
2023/04/16 03:10:24;;;;;;;224.65;49.72;;;;;;;;;;4959366;28;20501;-82
2023/04/16 03:12:50;;;;;;;216.50;49.00;;;;;;;;;;4959979;28;20967;-81
2023/04/16 03:15:16;;;;;;;223.30;48.27;;;;;;;;;;4976454;28;20456;-82
2023/04/16 03:17:42;;;;;;;193.00;47.40;;;;;;;;;;4975913;28;20434;-81
2023/04/16 03:20:09;;;;;;;207.73;48.20;;;;;;;;;;4955626;28;20931;-81
2023/04/16 03:22:35;;;;;;;194.93;47.80;;;;;;;;;;4959232;28;20514;-79
2023/04/16 03:25:01;;;;;;;199.67;48.80;;;;;;;;;;4977476;28;20416;-81
2023/04/16 03:27:27;;;;;;;209.95;49.05;;;;;;;;;;4971303;28;20445;-82
2023/04/16 03:29:53;;;;;;;205.45;47.35;;;;;;;;;;4977406;28;20525;-81
2023/04/16 03:32:19;;;;;;;219.03;49.10;;;;;;;;;;4940422;28;20455;-81
2023/04/16 03:34:45;;;;;;;218.18;48.20;;;;;;;;;;4974977;28;20810;-81
2023/04/16 03:37:11;;;;;;;187.73;47.15;;;;;;;;;;4972814;28;20803;-82
2023/04/16 03:39:37;;;;;;;213.55;50.60;;;;;;;;;;4960887;28;20493;-81
2023/04/16 03:42:04;;;;;;;232.43;51.55;;;;;;;;;;4969401;28;20903;-82
2023/04/16 03:44:30;;;;;;;225.02;50.17;;;;;;;;;;4944794;28;20434;-90
2023/04/16 03:46:56;;;;;;;224.90;49.63;;;;;;;;;;4973349;28;20919;-90
2023/04/16 03:49:22;;;;;;;217.40;51.00;;;;;;;;;;4985270;28;20673;-90
2023/04/16 03:51:48;;;;;;;238.32;53.40;;;;;;;;;;4988180;28;20418;-90
2023/04/16 03:54:14;;;;;;;246.57;52.33;;;;;;;;;;4977128;28;20410;-89
2023/04/16 03:56:40;;;;;;;229.10;51.90;;;;;;;;;;4975490;28;20416;-89
2023/04/16 03:59:07;;;;;;;214.63;50.95;;;;;;;;;;4960551;28;20438;-89
2023/04/16 04:01:33;;;;;;;256.48;52.95;;;;;;;;;;4982102;28;20436;-89
2023/04/16 04:03:59;;;;;;;207.97;50.30;;;;;;;;;;4977704;28;20398;-88
2023/04/16 04:06:26;;;;;;;221.27;51.13;;;;;;;;;;4977246;28;20443;-89
2023/04/16 04:08:52;;;;;;;222.02;51.58;;;;;;;;;;4980856;28;20462;-90
2023/04/16 04:11:19;;;;;;;213.70;51.30;;;;;;;;;;4963578;28;20418;-89
2023/04/16 04:13:45;;;;;;;209.98;51.30;;;;;;;;;;4982380;28;20422;-90
2023/04/16 04:16:11;;;;;;;221.38;50.65;;;;;;;;;;4963677;28;20433;-90
2023/04/16 04:18:37;;;;;;;207.57;52.13;;;;;;;;;;4949026;28;20492;-90
2023/04/16 04:21:07;;;;;;;220.65;51.15;;;;;;;;;;4982919;28;20476;-90
2023/04/16 04:23:33;;;;;;;185.55;49.08;;;;;;;;;;4964348;28;20418;-89
2023/04/16 04:26:02;;;;;;;173.93;49.78;;;;;;;;;;4996480;28;20442;-89
2023/04/16 04:28:29;;;;;;;188.38;48.33;;;;;;;;;;4976403;28;20956;-89
2023/04/16 04:30:55;;;;;;;173.10;47.28;;;;;;;;;;4972066;28;20424;-89
2023/04/16 04:33:21;;;;;;;171.77;48.03;;;;;;;;;;4986403;28;20480;-89
2023/04/16 04:35:47;;;;;;;168.32;47.40;;;;;;;;;;4954107;28;20429;-88
2023/04/16 04:38:13;;;;;;;177.30;49.20;;;;;;;;;;4973192;28;20449;-89
2023/04/16 04:40:39;;;;;;;192.32;49.78;;;;;;;;;;4979580;28;20434;-88
2023/04/16 04:43:06;;;;;;;186.95;49.40;;;;;;;;;;4977688;28;20412;-89
2023/04/16 04:45:32;;;;;;;174.63;46.75;;;;;;;;;;4992980;28;20423;-89
2023/04/16 04:47:58;;;;;;;161.07;43.10;;;;;;;;;;4957668;28;20504;-89
2023/04/16 04:50:24;;;;;;;149.33;42.40;;;;;;;;;;4967235;28;20449;-88
2023/04/16 04:52:50;;;;;;;165.50;41.90;;;;;;;;;;4964299;28;20433;-89
2023/04/16 04:55:16;;;;;;;174.15;42.30;;;;;;;;;;4995446;28;20821;-89
2023/04/16 04:57:42;;;;;;;146.88;41.67;;;;;;;;;;4981891;28;20428;-89
2023/04/16 05:00:08;;;;;;;161.15;43.05;;;;;;;;;;4982748;28;20441;-89
2023/04/16 05:02:35;;;;;;;169.15;43.88;;;;;;;;;;4968261;28;20507;-88
2023/04/16 05:05:01;;;;;;;160.38;42.65;;;;;;;;;;4966008;28;20430;-88
2023/04/16 05:07:27;;;;;;;155.83;42.10;;;;;;;;;;4977804;28;20431;-89
2023/04/16 05:09:53;;;;;;;134.55;40.78;;;;;;;;;;4967614;28;20433;-89
2023/04/16 05:12:19;;;;;;;144.00;41.55;;;;;;;;;;4984541;28;20523;-89
2023/04/16 05:14:45;;;;;;;142.05;41.47;;;;;;;;;;4987043;28;20425;-89
2023/04/16 05:17:11;;;;;;;134.45;40.72;;;;;;;;;;5014080;28;20418;-86
2023/04/16 05:19:37;;;;;;;160.90;41.35;;;;;;;;;;4988802;28;20453;-88
2023/04/16 05:22:03;;;;;;;144.73;41.07;;;;;;;;;;4995929;28;20469;-89
2023/04/16 05:24:29;;;;;;;142.73;39.47;;;;;;;;;;5002123;28;20398;-88
2023/04/16 05:26:56;;;;;;;159.23;40.78;;;;;;;;;;5012348;28;20436;-88
2023/04/16 05:29:23;;;;;;;128.60;38.27;;;;;;;;;;4996216;28;20438;-89
2023/04/16 05:31:49;;;;;;;120.40;37.58;;;;;;;;;;4964894;28;20413;-89
2023/04/16 05:34:15;;;;;;;126.00;37.92;;;;;;;;;;4971856;28;20412;-89
2023/04/16 05:36:41;;;;;;;135.57;37.28;;;;;;;;;;4959779;28;20486;-88
2023/04/16 05:39:07;;;;;;;130.52;37.38;;;;;;;;;;4953421;28;20447;-89
2023/04/16 05:41:33;;;;;;;117.78;36.40;;;;;;;;;;4995903;28;20430;-89
2023/04/16 05:43:59;;;;;;;124.43;35.13;;;;;;;;;;4969943;28;20488;-89
2023/04/16 05:46:25;;;;;;;149.13;36.85;;;;;;;;;;4972788;28;20428;-89
2023/04/16 05:48:52;;;;;;;149.48;37.33;;;;;;;;;;4962665;28;20426;-90
2023/04/16 05:51:18;;;;;;;142.45;35.47;;;;;;;;;;4978031;28;20414;-89
2023/04/16 05:53:45;;;;;;;132.60;35.22;;;;;;;;;;4963023;28;20908;-88
2023/04/16 05:56:11;;;;;;;119.23;36.00;;;;;;;;;;4978564;28;20506;-88
2023/04/16 05:58:37;;;;;;;107.43;34.33;;;;;;;;;;4956193;28;20857;-88
2023/04/16 06:01:03;;;;;;;101.35;33.92;;;;;;;;;;4975990;28;20434;-88
2023/04/16 06:03:29;;;;;;;96.00;33.53;;;;;;;;;;5006434;28;20505;-88
2023/04/16 06:05:55;;;;;;;103.22;34.05;;;;;;;;;;4973887;28;20781;-88
2023/04/16 06:08:21;;;;;;;104.25;33.35;;;;;;;;;;4951499;28;20549;-88
2023/04/16 06:10:47;;;;;;;89.30;32.73;;;;;;;;;;4980142;28;20474;-88
2023/04/16 06:13:13;;;;;;;102.65;33.47;;;;;;;;;;4963153;28;20418;-87
2023/04/16 06:15:39;;;;;;;94.45;31.85;;;;;;;;;;4977944;28;20432;-88
2023/04/16 06:18:05;;;;;;;113.30;32.90;;;;;;;;;;4964571;28;20459;-88
2023/04/16 06:20:31;;;;;;;104.13;34.28;;;;;;;;;;4992513;28;20418;-87
2023/04/16 06:22:57;;;;;;;93.85;32.75;;;;;;;;;;4950392;28;20427;-87
2023/04/16 06:25:23;;;;;;;113.77;33.07;;;;;;;;;;4962349;28;20423;-88
2023/04/16 06:27:50;;;;;;;109.97;33.83;;;;;;;;;;4962754;28;20463;-88
2023/04/16 06:30:16;;;;;;;108.60;32.53;;;;;;;;;;4987730;28;20414;-88
2023/04/16 06:32:43;;;;;;;86.53;31.50;;;;;;;;;;4969215;28;20438;-88
2023/04/16 06:35:09;;;;;;;76.68;29.73;;;;;;;;;;4978838;28;20410;-88
2023/04/16 06:37:35;;;;;;;86.35;31.08;;;;;;;;;;4993639;28;20484;-88
2023/04/16 06:40:02;;;;;;;85.25;30.65;;;;;;;;;;4978078;28;20751;-88
2023/04/16 06:42:28;;;;;;;76.18;30.23;;;;;;;;;;4965724;28;20425;-88
2023/04/16 06:44:54;;;;;;;86.40;29.73;;;;;;;;;;4957713;28;20418;-88
2023/04/16 06:47:20;;;;;;;73.82;30.75;;;;;;;;;;4977698;28;20415;-88
2023/04/16 06:49:46;;;;;;;72.90;29.50;;;;;;;;;;4958507;28;20431;-88
2023/04/16 06:52:12;;;;;;;72.03;28.65;;;;;;;;;;4960587;28;20657;-88
2023/04/16 06:54:39;;;;;;;75.20;28.45;;;;;;;;;;4962727;28;20446;-87
2023/04/16 06:57:05;;;;;;;77.95;30.92;;;;;;;;;;4944619;28;20388;-86
2023/04/16 06:59:31;;;;;;;69.80;28.02;;;;;;;;;;4992019;28;20435;-84
2023/04/16 07:01:57;;;;;;;67.60;29.42;;;;;;;;;;4955830;28;20461;-88
2023/04/16 07:04:23;;;;;;;75.10;29.33;;;;;;;;;;4977780;28;20462;-89
2023/04/16 07:06:49;;;;;;;71.80;29.67;;;;;;;;;;4944498;28;20455;-88
2023/04/16 07:09:16;;;;;;;72.78;29.27;;;;;;;;;;4976423;28;20521;-89
2023/04/16 07:11:43;;;;;;;65.63;29.00;;;;;;;;;;4987347;28;20779;-89
2023/04/16 07:14:09;;;;;;;65.25;28.80;;;;;;;;;;4991556;28;20512;-90
2023/04/16 07:16:36;;;;;;;65.32;28.17;;;;;;;;;;4973432;28;20477;-91
2023/04/16 07:19:02;;;;;;;66.15;27.70;;;;;;;;;;4943999;28;20464;-84
2023/04/16 07:21:30;;;;;;;60.13;27.63;;;;;;;;;;4948156;28;20410;-87
2023/04/16 07:23:56;;;;;;;57.72;27.08;;;;;;;;;;4972706;28;20414;-87
2023/04/16 07:26:22;;;;;;;52.00;26.17;;;;;;;;;;5014182;28;20410;-87
2023/04/16 07:28:48;;;;;;;50.60;25.83;;;;;;;;;;4972782;28;20426;-88
2023/04/16 07:31:14;;;;;;;53.28;25.73;;;;;;;;;;4991382;28;20441;-88
2023/04/16 07:33:40;;;;;;;50.60;25.15;;;;;;;;;;4978809;28;20433;-89
2023/04/16 07:36:07;;;;;;;49.63;25.50;;;;;;;;;;4960894;28;20465;-87
2023/04/16 07:38:33;;;;;;;50.83;25.02;;;;;;;;;;4965870;28;20433;-86
2023/04/16 07:41:00;;;;;;;48.20;24.92;;;;;;;;;;4998182;28;20507;-88
2023/04/16 07:43:29;;;;;;;49.00;26.27;;;;;;;;;;4982146;28;20512;-87
2023/04/16 07:45:55;;;;;;;46.00;25.10;;;;;;;;;;4981274;28;20418;-89
2023/04/16 07:48:21;;;;;;;42.03;23.40;;;;;;;;;;4964007;28;20531;-88
2023/04/16 07:50:48;;;;;;;45.47;24.00;;;;;;;;;;4975624;28;20422;-87
2023/04/16 07:53:15;;;;;;;45.92;24.65;;;;;;;;;;4965380;28;20421;-88
2023/04/16 07:55:41;;;;;;;45.17;23.70;;;;;;;;;;4961822;28;20453;-89
2023/04/16 07:58:08;;;;;;;46.08;23.13;;;;;;;;;;4977756;28;20416;-88
2023/04/16 08:00:34;;;;;;;47.50;23.67;;;;;;;;;;4984833;28;20455;-89
2023/04/16 08:03:00;;;;;;;50.67;22.10;;;;;;;;;;4960073;28;20430;-88
2023/04/16 08:05:27;;;;;;;41.75;21.90;;;;;;;;;;5006758;28;20485;-89
2023/04/16 08:07:53;;;;;;;41.17;20.75;;;;;;;;;;4980007;28;20444;-80
2023/04/16 08:10:19;;;;;;;39.30;20.08;;;;;;;;;;4974329;28;20454;-87
2023/04/16 08:12:45;;;;;;;42.70;20.40;;;;;;;;;;4991996;28;20447;-87
2023/04/16 08:15:11;;;;;;;39.40;19.98;;;;;;;;;;4961601;28;20527;-89
2023/04/16 08:17:37;;;;;;;38.47;19.60;;;;;;;;;;4994585;28;20540;-90
2023/04/16 08:20:04;;;;;;;34.80;19.35;;;;;;;;;;4986708;28;20417;-89
2023/04/16 08:22:30;;;;;;;35.30;19.25;;;;;;;;;;4994451;28;20437;-88
2023/04/16 08:24:56;;;;;;;32.53;18.95;;;;;;;;;;4963030;28;20449;-91
2023/04/16 08:27:22;;;;;;;34.08;18.08;;;;;;;;;;4979663;28;20414;-90
2023/04/16 08:29:49;;;;;;;32.72;18.42;;;;;;;;;;4982014;28;20428;-88
2023/04/16 08:32:18;;;;;;;38.58;17.63;;;;;;;;;;4947728;28;20422;-88
2023/04/16 08:34:44;;;;;;;31.65;17.55;;;;;;;;;;4967092;28;20416;-87
2023/04/16 08:37:10;;;;;;;34.85;17.20;;;;;;;;;;4963850;28;20488;-85
2023/04/16 08:39:36;;;;;;;32.55;17.98;;;;;;;;;;4979147;28;20565;-89
2023/04/16 08:42:04;;;;;;;30.45;17.20;;;;;;;;;;4975959;28;20441;-90
2023/04/16 08:44:32;;;;;;;31.17;17.35;;;;;;;;;;4979604;28;20753;-80
2023/04/16 08:46:58;;;;;;;28.65;17.48;;;;;;;;;;4970614;28;20426;-82
2023/04/16 08:49:25;;;;;;;32.50;17.73;;;;;;;;;;4977130;28;20468;-82
2023/04/16 08:51:52;;;;;;;34.78;17.90;;;;;;;;;;4980846;28;20422;-80
2023/04/16 08:54:23;;;;;;;35.53;17.90;;;;;;;;;;4959440;28;20426;-81
2023/04/16 08:56:50;;;;;;;32.73;17.47;;;;;;;;;;4962884;28;20410;-88
2023/04/16 08:59:17;;;;;;;33.72;17.58;;;;;;;;;;4970832;28;20484;-88
2023/04/16 09:01:47;;;;;;;32.63;17.52;;;;;;;;;;4990923;28;20434;-89
2023/04/16 09:04:17;;;;;;;34.22;17.33;;;;;;;;;;4971836;28;20437;-87
2023/04/16 09:06:43;;;;;;;32.42;17.15;;;;;;;;;;5003947;28;20425;-88
2023/04/16 09:09:11;;;;;;;27.07;15.73;;;12.00;99.90;;;;;;4973923;28;20542;-87
2023/04/16 09:11:38;;;;;;;29.33;17.23;;;;;;;;;;4954718;28;20434;-88
2023/04/16 09:14:09;;;;;;;32.40;16.92;;;12.90;99.90;;;;;;4966686;28;20781;-88
2023/04/16 09:16:39;;;;;;;27.87;16.47;;;;;;;;;;4950792;28;20924;-88
2023/04/16 09:19:05;;;;;;;29.27;15.98;;;;;;;;;;4958309;28;20945;-86
2023/04/16 09:21:31;;;;;;;29.92;16.15;;;;;;;;;;4960511;28;20770;-87
2023/04/16 09:23:59;;;;;;;31.85;16.15;;;;;;;;;;4963125;28;20462;-87
2023/04/16 09:26:25;;;;;;;31.92;17.17;;;;;;;;;;4960184;28;20535;-88
2023/04/16 09:28:51;;;;;;;32.03;15.85;;;;;;;;;;4992150;28;20783;-86
2023/04/16 09:31:18;;;;;;;27.48;15.00;;;;;;;;;;4982595;28;20413;-88
2023/04/16 09:34:00;;;;;;;25.67;15.30;;;;;;;;;;4979302;28;20968;-89
2023/04/16 09:36:27;;;;;;;30.90;16.25;;;;;;;;;;4976929;28;20423;-91
2023/04/16 09:38:53;;;;;;;31.43;16.20;;;;;;;;;;4965955;28;20539;-89
2023/04/16 09:41:23;;;;;;;30.80;16.25;;;;;;;;;;4964783;28;20454;-93
2023/04/16 09:43:56;;;;;;;28.95;15.55;;;;;;;;;;4965383;28;20478;-89
2023/04/16 09:46:23;;;;;;;29.27;15.47;;;13.80;99.90;;;;;;4969841;28;20505;-90
2023/04/16 09:48:50;;;;;;;29.45;16.17;;;;;;;;;;4986242;28;20430;-89
2023/04/16 09:51:16;;;;;;;34.73;16.47;;;;;;;;;;4975032;28;20422;-88
2023/04/16 09:53:42;;;;;;;30.63;16.10;;;;;;;;;;4962622;28;20450;-89
2023/04/16 09:56:09;;;;;;;32.88;17.17;;;;;;;;;;4976907;28;20422;-90
2023/04/16 09:58:36;;;;;;;26.95;15.82;;;;;;;;;;4993654;28;20505;-89
2023/04/16 10:01:06;;;;;;;27.10;15.35;;;13.70;99.90;;;;;;4945025;28;20458;-88
2023/04/16 10:03:33;;;;;;;31.17;15.80;;;;;;;;;;4954359;28;20426;-88
2023/04/16 10:06:00;;;;;;;33.28;15.80;;;;;;;;;;4963962;28;20430;-88
2023/04/16 10:08:28;;;;;;;28.02;15.35;;;;;;;;;;4966261;28;20428;-89
2023/04/16 10:10:55;;;;;;;30.90;15.07;;;;;;;;;;4985633;28;20438;-87
2023/04/16 10:13:21;;;;;;;29.63;15.07;;;;;;;;;;4983734;28;20416;-88
2023/04/16 10:15:47;;;;;;;30.00;14.77;;;;;;;;;;4982388;28;20418;-87
2023/04/16 10:18:14;;;;;;;28.92;15.30;;;;;;;;;;4964176;28;20485;-90
2023/04/16 10:20:40;;;;;;;33.65;16.45;;;;;;;;;;4970016;28;20488;-90
2023/04/16 10:23:06;;;;;;;28.70;15.25;;;;;;;;;;4985772;28;20417;-88
2023/04/16 10:25:32;;;;;;;29.40;16.13;;;;;;;;;;4984633;28;20438;-87
2023/04/16 10:27:59;;;;;;;32.63;15.55;;;;;;;;;;4988837;28;20429;-88
2023/04/16 10:30:26;;;;;;;29.75;15.70;;;;;;;;;;4988104;28;20422;-89
2023/04/16 10:32:53;;;;;;;26.52;15.30;;;;;;;;;;4987551;28;20448;-86
2023/04/16 10:35:20;;;;;;;28.43;16.63;;;;;;;;;;4983059;28;20427;-88
2023/04/16 10:37:46;;;;;;;31.95;16.25;;;;;;;;;;4953862;28;20935;-88
2023/04/16 10:40:22;;;;;;;29.60;16.23;;;;;;;;;;4971408;28;20418;-88
2023/04/16 10:42:59;;;;;;;29.13;16.77;;;;;;;;;;4955769;28;20428;-89
2023/04/16 10:45:32;;;;;;;28.25;16.88;;;;;;;;;;4977086;28;20905;-89
2023/04/16 10:47:58;;;;;;;31.48;16.42;;;;;;;;;;4982714;28;20894;-88
2023/04/16 10:50:24;;;;;;;28.00;16.45;;;;;;;;;;4977122;28;20427;-88
2023/04/16 10:53:10;;;;;;;30.97;16.43;;;;;;;;;;4947134;28;20506;-88
2023/04/16 10:55:39;;;;;;;32.60;17.67;;;;;;;;;;4960107;28;20829;-89
2023/04/16 10:58:24;;;;;;;30.95;17.30;;;;;;;;;;4993274;28;20426;-87
2023/04/16 11:00:51;;;;;;;34.63;16.83;;;;;;;;;;4956876;28;20442;-87
2023/04/16 11:03:17;;;;;;;29.00;16.83;;;;;;;;;;4965742;28;20444;-87
2023/04/16 11:05:46;;;;;;;35.10;17.75;;;;;;;;;;4984837;28;20426;-89
2023/04/16 11:08:16;;;;;;;30.63;17.35;;;;;;;;;;4971488;28;21000;-86
2023/04/16 11:10:42;;;;;;;28.85;17.88;;;;;;;;;;4971428;28;20465;-86
2023/04/16 11:13:08;;;;;;;35.03;18.30;;;;;;;;;;4956745;28;20517;-88
2023/04/16 11:15:34;;;;;;;36.92;17.83;;;;;;;;;;4968457;28;20975;-89
2023/04/16 11:18:02;;;;;;;31.60;18.73;;;;;;;;;;4959447;28;20458;-88
2023/04/16 11:20:28;;;;;;;31.92;17.08;;;;;;;;;;4977231;28;20927;-87
2023/04/16 11:22:55;;;;;;;28.95;17.02;;;;;;;;;;4985363;28;20426;-88
2023/04/16 11:25:22;;;;;;;31.70;17.58;;;;;;;;;;4981376;28;20405;-87
2023/04/16 11:27:48;;;;;;;32.40;17.60;;;;;;;;;;4962533;28;20449;-88
2023/04/16 11:30:14;;;;;;;32.85;18.17;;;;;;;;;;4958206;28;20945;-89
2023/04/16 11:32:41;;;;;;;35.92;18.27;;;;;;;;;;4975939;28;20596;-88
2023/04/16 11:35:13;;;;;;;35.03;18.13;;;;;;;;;;4966453;28;20429;-87
2023/04/16 11:37:39;;;;;;;34.73;17.53;;;;;;;;;;4970045;28;20435;-87
2023/04/16 11:40:07;;;;;;;31.30;17.88;;;;;;;;;;4947878;28;20414;-89
2023/04/16 11:42:39;;;;;;;35.60;18.13;;;;;;;;;;4980211;28;20540;-88
2023/04/16 11:45:06;;;;;;;35.00;17.88;;;;;;;;;;4966078;28;20431;-88
2023/04/16 11:47:32;;;;;;;33.58;18.02;;;;;;;;;;4962733;28;20422;-89
2023/04/16 11:50:14;;;;;;;35.83;17.37;;;;;;;;;;4960580;28;20422;-88
2023/04/16 11:52:40;;;;;;;34.33;18.70;;;;;;;;;;4960836;28;20410;-88
2023/04/16 11:55:06;;;;;;;30.05;17.75;;;;;;;;;;4975419;28;20418;-88
2023/04/16 11:57:33;;;;;;;29.57;16.97;;;;;;;;;;4975041;28;20431;-87
2023/04/16 11:59:59;;;;;;;30.42;17.75;;;;;;;;;;4989511;28;20429;-87
2023/04/16 12:02:35;;;;;;;26.92;17.05;;;;;;;;;;4952301;28;20906;-87
2023/04/16 12:05:02;;;;;;;31.48;18.42;;;;;;;;;;4980033;28;20434;-87
2023/04/16 12:07:29;;;;;;;31.15;17.92;;;;;;;;;;4969904;28;21068;-87
2023/04/16 12:10:05;;;;;;;32.67;18.03;;;;;;;;;;4962217;28;20415;-87
2023/04/16 12:12:32;;;;;;;32.25;18.40;;;;;;;;;;4963718;28;20406;-86
2023/04/16 12:15:04;;;;;;;33.03;17.58;;;;;;;;;;4961142;28;20461;-87
2023/04/16 12:17:31;;;;;;;31.33;17.67;;;;;;;;;;4959870;28;20429;-87
2023/04/16 12:19:58;;;;;;;28.15;16.73;;;;;;;;;;4956506;28;20787;-88
2023/04/16 12:22:28;;;;;;;34.00;18.40;;;;;;;;;;4978846;28;20484;-89
2023/04/16 12:24:58;;;;;;;31.07;17.93;;;;;;;;;;4961064;28;20986;-88
2023/04/16 12:27:27;;;;;;;30.30;17.77;;;;;;;;;;4981155;28;20782;-87
2023/04/16 12:30:03;;;;;;;30.65;18.60;;;;;;;;;;4978831;28;20759;-89
2023/04/16 12:32:30;;;;;;;35.03;18.98;;;;;;;;;;4977135;28;20434;-88
2023/04/16 12:34:56;;;;;;;33.35;18.58;;;;;;;;;;4975210;28;20528;-88
2023/04/16 12:37:22;;;;;;;28.93;17.77;;;;;;;;;;4977045;28;21080;-88
2023/04/16 12:39:48;;;;;;;34.85;18.48;;;;;;;;;;4967629;28;20437;-86
2023/04/16 12:42:14;;;;;;;30.88;18.15;;;;;;;;;;4981653;28;20515;-85
2023/04/16 12:44:40;;;;;;;30.90;18.15;;;;;;;;;;4957285;28;20484;-86
2023/04/16 12:47:06;;;;;;;30.75;18.42;;;;;;;;;;5011753;28;20493;-87
2023/04/16 12:49:32;;;;;;;34.90;19.00;;;;;;;;;;4963279;28;20938;-86
2023/04/16 12:51:59;;;;;;;31.50;18.08;;;;;;;;;;4961326;28;20435;-86
2023/04/16 12:54:29;;;;;;;30.48;17.77;;;;;;;;;;4956247;28;20431;-87
2023/04/16 12:56:56;;;;;;;30.10;17.25;;;;;;;;;;4970136;28;20907;-90
2023/04/16 12:59:22;;;;;;;32.13;17.20;;;;;;;;;;4953757;28;20949;-87
2023/04/16 13:01:49;;;;;;;28.25;17.00;;;;;;;;;;4986136;28;20933;-89
2023/04/16 13:04:15;;;;;;;28.10;17.13;;;;;;;;;;4972694;28;20551;-88
2023/04/16 13:06:41;;;;;;;31.77;18.35;;;;;;;;;;4978322;28;20470;-88
2023/04/16 13:09:07;;;;;;;27.15;17.35;;;;;;;;;;4974454;28;20441;-87
2023/04/16 13:11:33;;;;;;;26.43;16.30;;;;;;;;;;4977624;28;20429;-89
2023/04/16 13:13:59;;;;;;;29.58;17.02;;;;;;;;;;4964832;28;20425;-87
2023/04/16 13:16:26;;;;;;;28.48;16.45;;;;;;;;;;4962333;28;20415;-87
2023/04/16 13:18:52;;;;;;;29.60;16.50;;;;;;;;;;4963545;28;20508;-88
2023/04/16 13:21:22;;;;;;;26.40;16.42;;;;;;;;;;4961896;28;20440;-87
2023/04/16 13:23:48;;;;;;;25.00;15.35;;;;;;;;;;4967752;28;20503;-87
2023/04/16 13:26:16;;;;;;;27.05;15.07;;;;;;;;;;4960770;28;20462;-87
2023/04/16 13:28:44;;;;;;;24.63;14.93;;;;;;;;;;4962481;28;20426;-87
2023/04/16 13:31:14;;;;;;;26.02;15.32;;;;;;;;;;4985687;28;20425;-87
2023/04/16 13:33:40;;;;;;;26.23;15.32;;;;;;;;;;4965002;28;20426;-87
2023/04/16 13:36:10;;;;;;;27.75;15.15;;;;;;;;;;4979325;28;20469;-87
2023/04/16 13:38:38;;;;;;;23.45;15.18;;;;;;;;;;4956902;28;20442;-88
2023/04/16 13:41:05;;;;;;;23.08;15.05;;;;;;;;;;5000009;28;20933;-86
2023/04/16 13:43:31;;;;;;;24.83;15.32;;;;;;;;;;4968456;28;20450;-87
2023/04/16 13:45:59;;;;;;;25.47;15.13;;;;;;;;;;4961889;28;20426;-86
2023/04/16 13:48:25;;;;;;;26.75;16.05;;;;;;;;;;5010463;28;20465;-85
2023/04/16 13:50:52;;;;;;;24.10;15.63;;;;;;;;;;4989352;28;20427;-88
2023/04/16 13:53:18;;;;;;;23.90;15.20;;;;;;;;;;4964505;28;20492;-86
2023/04/16 13:55:44;;;;;;;22.73;14.93;;;;;;;;;;4985757;28;20422;-86
2023/04/16 13:58:10;;;;;;;24.77;15.98;;;;;;;;;;4979925;28;20417;-86
2023/04/16 14:00:37;;;;;;;25.58;15.30;;;;;;;;;;4963448;28;20831;-86
2023/04/16 14:03:05;;;;;;;23.15;15.00;;;;;;;;;;4962026;28;20422;-86
2023/04/16 14:05:34;;;;;;;21.57;14.97;;;;;;;;;;4980156;28;20743;-85
2023/04/16 14:08:00;;;;;;;23.27;14.82;;;;;;;;;;4977975;28;20941;-87